Tuesday, September 23, 2014
22:31 UTC
  |  Log In   |  Register Free
Airport Search:

Orlando Sanford International Airport
(KSFB)

FAA data valid effective September 18, 2014 - November 13, 2014 (unless otherwise noted).

 
 
 
 
 
 
 
 
 
 
 
 
 
 

Current Aviation Weather for Orlando Sanford International Airport (KSFB)

The most recent METAR observation for KSFB was updated at: 2216
METAR Summary (Translated METAR)
KSFB
232200Z 07010G18KT 10SM -TSRA FEW041 BKN055 OVC110 23/22 A3000 RMK AO2 LTG DSNT S AND SW P0001 T02280217
KORL
232203Z 03009KT 3SM +TSRA BR BKN026 BKN041 OVC050 23/22 A3000 RMK AO2 LTG DSNT W-NE P0008 T02280217
(14.8 nm SW from KSFB)
KDED
232155Z AUTO 11005KT 10SM FEW018 SCT026 BKN033 24/21 A3002 RMK AO1
(17.6 nm NW from KSFB)
TAF Summary (Translated TAF)
KSFB
232157Z 2322/2418 08013KT 3SM -TSRA SCT020CB BKN050 BKN110 TEMPO 2322/2324 2SM TSRA BKN025CB BKN050 FM240200 15003KT P6SM SCT040 BKN140 TEMPO 2409/2412 5SM BR FEW005
  Airport Weather Conditions for KSFB

 Current Weather at SFB
76° F
Thunderstorm Heavy Rain Fog/Mist
Variable winds at 3.5 mph
SFB NOAA Radar

Pressure: 29.99 in
Humidity: 91%
Wind: Variable at 3.5 MPH (3 KT)
Dew Point: 73.0°F
Visibility: 1.00 mi


Airport Weather Forecast for KSFB

Translated METAR and TAF for KSFB
Translated METAR for KSFB (2225 UTC 23 September 2014)
found at http://aviationweather.gov/adds/metars/
 
METAR text: KSFB 232218Z 10008KT 4SM VCTS RA BR FEW006 FEW050 OVC065 23/22 A3001 RMK AO2 LTG DSNT SW TSE17 P0005 T02280217
Conditions at: KSFB (SANFORD/ORLANDO , FL, US) observed 2218 UTC 23 September 2014
Temperature: 22.8°C (73°F)
Dewpoint: 21.7°C (71°F) [RH = 94%]
Pressure (altimeter): 30.01 inches Hg (1016.3 mb)
Winds: from the E (100 degrees) at 9 MPH (8 knots; 4.2 m/s)
Visibility: 4 miles (6 km)
Ceiling: 6500 feet AGL
Clouds: few clouds at 600 feet AGL
few clouds at 5000 feet AGL
overcast cloud deck at 6500 feet AGL
Weather: VCTS RA BR  (thunderstorm in vicinity, rain, mist)
Translated TAF for KSFB
Forecast for: KSFB (SANFORD/ORLANDO , FL, US)
TAF Text: KSFB 232157Z 2322/2418 08013KT 3SM -TSRA SCT020CB BKN050 BKN110
Forecast period: 2200 UTC 23 September 2014 to 0200 UTC 24 September 2014
Forecast type: FROM: standard forecast or significant change
Winds: from the E (80 degrees) at 15 MPH (13 knots; 6.8 m/s)
Visibility: 3 miles (5 km)
Ceiling: 5000 feet AGL
Clouds: scattered clouds at 2000 feet AGL
broken clouds at 5000 feet AGL
broken clouds at 11000 feet AGL
Weather: -TSRA  (light rain associated with thunderstorm(s))
TAF Text: TEMPO 2322/2324 2SM TSRA BKN025CB BKN050
Forecast period: 2200 UTC 23 September 2014 to 0000 UTC 24 September 2014
Forecast type: TEMPORARY: The following changes expected for less than half the time period
Visibility: 2.00 miles (3.22 km)
Ceiling: 2500 feet AGL
Clouds: broken clouds at 2500 feet AGL
broken clouds at 5000 feet AGL
Weather: TSRA  (rain associated with thunderstorm(s))
TAF Text: FM240200 15003KT P6SM SCT040 BKN140
Forecast period: 0200 to 1800 UTC 24 September 2014
Forecast type: FROM: standard forecast or significant change
Winds: from the SSE (150 degrees) at 3 MPH (3 knots; 1.6 m/s)
Visibility: 6 or more miles (10+ km)
Ceiling: 14000 feet AGL
Clouds: scattered clouds at 4000 feet AGL
broken clouds at 14000 feet AGL
Weather: no significant weather forecast for this period
TAF Text: TEMPO 2409/2412 5SM BR FEW005
Forecast period: 0900 to 1200 UTC 24 September 2014
Forecast type: TEMPORARY: The following changes expected for less than half the time period
Visibility: 5 miles (8 km)
Clouds: few clouds at 500 feet AGL
Weather: BR  (mist)

Find All Airport Services Find A Hotel Find A Rental Car Find A Golf Course Find A Restaurant $100 Hamburger



FBO's on the Field
FBO Company Facility Photos Services Transportation Aviation Fuel Prices: Prices include tax
Catering Weather Repair Courtesy Rental Type 100LL JetA JetA+ MOGAS 8087
 
StarPort

Currently rated 3.8 by 7 people
FS:
Last Updated: Sep-23
Login to update fuel prices
SS:
Contact StarPortMore FBO Information
 
Million Air Sanford

Currently rated 3.6 by 3 people
FS:Avfuel
Last Updated: Sep-22
Login to update fuel prices
SS:
Contact Million Air SanfordMore FBO Information
 
Add another FBO Facility Photos Catering Weather Repair Courtesy Rental Type 100LL JetA JetA+ MOGAS 8087
Services Transportation Aviation Fuel Prices: Prices include tax


model-print
model-print
model-print
model-print